• Join FlightAware (Why Join?)
  • Login
  • US Flag 
12:49AM EDT


 

Airport Tracker/Info


-or-


 

Live Flight TrackerFlight Track Log ✈ UCA596 ✈ 24-Feb-2014 ✈ KIAD - KBGM

Flight Track Log - Related Links

Times and Time Zones

All times are in EST time to prevent confusion due to time zone crossing. See the UCA596 flight status page for this flight to view local times or setup timezone preferences in your user account.

Time Position Orientation Groundspeed Altitude Reporting Facility
EST Latitude Longitude Course Direction KTS MPH feet Rate Location/Type
01:22PM 38.9833 -77.4833 North 148 170 2,800  Level Potomac TRACON
01:23PM 39.0167 -77.4833 360° North 168 193 4,500 1,740 Climbing Potomac TRACON
01:24PM 39.0817 -77.5008 348° North 160 184 7,300 1,800 Climbing Washington Center
01:25PM 39.1297 -77.4967 North 160 184 9,200 1,680 Climbing Washington Center
01:26PM 39.1761 -77.4686 25° Northeast 160 184 10,700 1,380 Climbing Washington Center
01:27PM 39.3967 -77.4500 North  Level FlightAware Approximate
01:27PM 39.2328 -77.4350 25° Northeast 180 207 12,000  Level Washington Center
01:28PM 39.2894 -77.4125 17° North 200 230 13,300 960 Climbing Washington Center
01:29PM 39.3433 -77.4217 353° North 200 230 14,000 780 Climbing Washington Center
01:30PM 39.4039 -77.4286 355° North 200 230 15,000 1,080 Climbing Washington Center
01:33PM 39.5367 -77.4447 355° North 195 224 17,900 1,080 Climbing New York Center
01:34PM 39.5889 -77.4469 358° North 190 219 18,700 300 Climbing New York Center
01:35PM 39.6469 -77.4525 356° North 196 226 18,500 -180 Descending New York Center
01:36PM 39.7033 -77.4525 360° North 216 249 18,400 -60 Descending New York Center
01:37PM 39.7722 -77.4508 North 221 254 18,400 -720 Level New York Center
01:38PM 39.8264 -77.4506 360° North 216 249 17,000 -1,620 Descending New York Center
01:39PM 39.8961 -77.4356 North 221 254 15,200 -1,020 Descending New York Center
01:40PM 39.9583 -77.4008 23° Northeast 244 281 15,000 -900 Descending New York Center
01:41PM 40.0339 -77.3567 24° Northeast 266 306 13,500 -1,200 Descending New York Center
01:42PM 40.0961 -77.3244 22° Northeast 266 306 12,700 -900 Descending New York Center
01:43PM 40.1717 -77.2800 24° Northeast 260 299 11,800 -900 Descending New York Center
01:44PM 40.2339 -77.2450 23° Northeast 260 299 10,900 -900 Descending New York Center
01:45PM 40.3092 -77.2058 22° Northeast 260 299 10,100 -420 Descending New York Center
01:46PM 40.3672 -77.1731 23° Northeast 260 299 10,100 -60 Level New York Center
01:47PM 40.4403 -77.1306 24° Northeast 260 299 10,000 -60 Descending New York Center
01:48PM 40.5006 -77.0981 22° Northeast 260 299 10,000  Level New York Center
01:49PM 40.5714 -77.0553 25° Northeast 260 299 10,100  Climbing New York Center
01:50PM 40.6336 -77.0228 22° Northeast 260 299 10,100 -60 Level New York Center
01:51PM 40.7025 -76.9825 24° Northeast 255 293 10,000 -120 Descending New York Center
01:52PM 40.7647 -76.9497 22° Northeast 255 293 9,900  Descending New York Center
01:53PM 40.8356 -76.9067 25° Northeast 255 293 10,000  Climbing New York Center
01:54PM 40.8914 -76.8761 22° Northeast 260 299 10,000  Level New York Center
01:55PM 40.9644 -76.8331 24° Northeast 260 299 10,000  Level New York Center
01:56PM 41.0289 -76.7950 24° Northeast 260 299 10,000 -60 Level New York Center
01:57PM 41.0911 -76.7592 23° Northeast 255 293 9,900 -60 Descending New York Center
01:58PM 41.1556 -76.7233 23° Northeast 255 293 9,900  Level New York Center
01:59PM 41.2175 -76.6903 22° Northeast 249 287 10,000  Climbing New York Center
02:00PM 41.2736 -76.6536 26° Northeast 249 287 10,000 -60 Level New York Center
02:01PM 41.3422 -76.6128 24° Northeast 249 287 9,900  Descending New York Center
02:02PM 41.4022 -76.5792 23° Northeast 243 280 10,000  Climbing New York Center
02:03PM 41.4667 -76.5406 24° Northeast 243 280 9,900 -60 Descending New York Center
02:04PM 41.5244 -76.5094 22° Northeast 243 280 9,900  Level New York Center
02:05PM 41.5864 -76.4731 24° Northeast 243 280 9,900 -300 Level New York Center
02:06PM 41.6592 -76.4322 23° Northeast 243 280 9,300 -600 Descending New York Center
02:07PM 41.7214 -76.3958 24° Northeast 243 280 8,800 -900 Descending New York Center
02:08PM 41.7817 -76.3564 26° Northeast 243 280 7,500 -1,260 Descending New York Center
02:09PM 41.8358 -76.3108 32° Northeast 238 274 6,300 -1,200 Descending New York Center
02:10PM 41.8889 -76.2428 44° Northeast 243 280 5,100 -1,080 Descending New York Center
02:11PM 41.9333 -76.1794 47° Northeast 237 273 4,200 -600 Descending New York Center
02:12PM 41.9519 -76.0917 74° East 237 273 3,900 -120 Descending New York Center
02:13PM 41.9678 -76.0178 74° East 237 273 4,000  Climbing New York Center
02:14PM 41.9856 -75.9467 71° East 226 260 4,000  Level New York Center
02:15PM 42.0017 -75.8586 76° East 215 247 4,000  Level New York Center
02:16PM 42.0419 -75.8450 14° North 167 192 4,000  Level New York Center
02:17PM 42.0783 -75.8700 333° Northwest 120 138 4,000 -180 Level New York Center
02:18PM 42.1142 -75.9036 325° Northwest 139 160 3,700 -600 Descending New York Center
02:19PM 42.1464 -75.9314 327° Northwest 144 166 2,900 -660 Descending New York Center
02:20PM 42.1706 -75.9500 330° Northwest 123 142 2,400 -540 Descending New York Center
02:22PM 42.2084 -75.9796 56° Northeast  Level Estimated
02:29PM 42.2084 -75.9796 North  Level Estimated
02:30PM 42.2084 -75.9796 North  Level Estimated
02:31PM 42.2084 -75.9796 North  Level Estimated
02:32PM 42.2084 -75.9796 North  Level Estimated